sensor_id;sensor_type;location;lat;lon;timestamp;pressure;altitude;pressure_sealevel;temperature;humidity
21779;BME280;11050;52.222;20.916;2023-05-24T00:02:23;99740.06;;;19.76;51.62
21779;BME280;11050;52.222;20.916;2023-05-24T00:04:51;99731.19;;;19.74;51.29
21779;BME280;11050;52.222;20.916;2023-05-24T00:07:18;99733.19;;;19.74;51.31
21779;BME280;11050;52.222;20.916;2023-05-24T00:09:44;99721.84;;;19.70;51.24
21779;BME280;11050;52.222;20.916;2023-05-24T00:12:09;99729.41;;;19.70;52.23
21779;BME280;11050;52.222;20.916;2023-05-24T00:14:35;99718.72;;;19.63;51.09
21779;BME280;11050;52.222;20.916;2023-05-24T00:17:01;99731.22;;;19.66;51.48
21779;BME280;11050;52.222;20.916;2023-05-24T00:19:27;99721.53;;;19.63;50.98
21779;BME280;11050;52.222;20.916;2023-05-24T00:21:53;99721.03;;;19.61;51.54
21779;BME280;11050;52.222;20.916;2023-05-24T00:24:20;99723.81;;;19.61;51.32
21779;BME280;11050;52.222;20.916;2023-05-24T00:26:46;99721.69;;;19.58;51.92
21779;BME280;11050;52.222;20.916;2023-05-24T00:29:12;99718.09;;;19.58;52.06
21779;BME280;11050;52.222;20.916;2023-05-24T00:31:38;99719.25;;;19.57;51.26
21779;BME280;11050;52.222;20.916;2023-05-24T00:34:04;99712.00;;;19.56;50.88
21779;BME280;11050;52.222;20.916;2023-05-24T00:36:30;99703.97;;;19.54;50.56
21779;BME280;11050;52.222;20.916;2023-05-24T00:38:56;99715.28;;;19.58;50.00
21779;BME280;11050;52.222;20.916;2023-05-24T00:41:21;99709.22;;;19.56;50.24
21779;BME280;11050;52.222;20.916;2023-05-24T00:43:47;99708.59;;;19.59;49.83
21779;BME280;11050;52.222;20.916;2023-05-24T00:46:18;99716.13;;;19.58;49.79
21779;BME280;11050;52.222;20.916;2023-05-24T00:48:48;99712.00;;;19.56;49.35
21779;BME280;11050;52.222;20.916;2023-05-24T00:51:14;99710.38;;;19.55;49.96
21779;BME280;11050;52.222;20.916;2023-05-24T00:53:45;99709.06;;;19.52;49.79
21779;BME280;11050;52.222;20.916;2023-05-24T00:56:13;99705.63;;;19.47;50.08
21779;BME280;11050;52.222;20.916;2023-05-24T00:58:39;99705.13;;;19.45;50.14
21779;BME280;11050;52.222;20.916;2023-05-24T01:01:05;99707.06;;;19.44;49.94
21779;BME280;11050;52.222;20.916;2023-05-24T01:03:31;99708.06;;;19.40;50.17
21779;BME280;11050;52.222;20.916;2023-05-24T01:06:00;99707.91;;;19.36;50.28
21779;BME280;11050;52.222;20.916;2023-05-24T01:12:18;99704.94;;;19.33;50.99
21779;BME280;11050;52.222;20.916;2023-05-24T01:14:51;99709.19;;;19.30;51.22
21779;BME280;11050;52.222;20.916;2023-05-24T01:17:30;99694.59;;;19.25;51.35
21779;BME280;11050;52.222;20.916;2023-05-24T01:20:03;99701.28;;;19.24;50.80
21779;BME280;11050;52.222;20.916;2023-05-24T01:26:04;99707.66;;;19.16;51.21
21779;BME280;11050;52.222;20.916;2023-05-24T01:28:33;99709.31;;;19.17;51.40
21779;BME280;11050;52.222;20.916;2023-05-24T01:31:01;99705.53;;;19.13;51.53
21779;BME280;11050;52.222;20.916;2023-05-24T01:33:27;99707.50;;;19.12;51.81
21779;BME280;11050;52.222;20.916;2023-05-24T01:35:52;99708.97;;;19.10;51.34
21779;BME280;11050;52.222;20.916;2023-05-24T01:38:18;99711.78;;;19.10;51.92
21779;BME280;11050;52.222;20.916;2023-05-24T01:40:49;99711.78;;;19.10;51.70
21779;BME280;11050;52.222;20.916;2023-05-24T01:43:37;99715.34;;;19.10;51.80
21779;BME280;11050;52.222;20.916;2023-05-24T01:46:34;99718.47;;;19.09;51.58
21779;BME280;11050;52.222;20.916;2023-05-24T01:51:53;99714.69;;;19.05;52.12
21779;BME280;11050;52.222;20.916;2023-05-24T01:54:25;99710.28;;;19.04;52.09
21779;BME280;11050;52.222;20.916;2023-05-24T01:56:54;99715.84;;;19.04;51.29
21779;BME280;11050;52.222;20.916;2023-05-24T01:59:23;99710.91;;;19.01;52.02
21779;BME280;11050;52.222;20.916;2023-05-24T02:01:49;99720.91;;;19.02;52.02
21779;BME280;11050;52.222;20.916;2023-05-24T02:04:16;99717.63;;;19.00;52.40
21779;BME280;11050;52.222;20.916;2023-05-24T02:06:42;99714.50;;;18.92;52.00
21779;BME280;11050;52.222;20.916;2023-05-24T02:09:07;99715.31;;;18.93;52.00
21779;BME280;11050;52.222;20.916;2023-05-24T02:11:33;99711.84;;;18.87;52.14
21779;BME280;11050;52.222;20.916;2023-05-24T02:13:59;99710.22;;;18.86;52.51
21779;BME280;11050;52.222;20.916;2023-05-24T02:16:25;99713.84;;;18.87;52.11
21779;BME280;11050;52.222;20.916;2023-05-24T02:18:51;99715.78;;;18.86;51.91
21779;BME280;11050;52.222;20.916;2023-05-24T02:21:17;99715.13;;;18.81;52.20
21779;BME280;11050;52.222;20.916;2023-05-24T02:23:43;99715.44;;;18.79;52.28
21779;BME280;11050;52.222;20.916;2023-05-24T02:26:09;99723.63;;;18.76;52.31
21779;BME280;11050;52.222;20.916;2023-05-24T02:28:36;99709.50;;;18.72;51.89
21779;BME280;11050;52.222;20.916;2023-05-24T02:31:02;99717.56;;;18.74;52.31
21779;BME280;11050;52.222;20.916;2023-05-24T02:33:28;99721.47;;;18.73;51.80
21779;BME280;11050;52.222;20.916;2023-05-24T02:35:58;99717.84;;;18.72;51.68
21779;BME280;11050;52.222;20.916;2023-05-24T02:38:23;99717.34;;;18.70;52.56
21779;BME280;11050;52.222;20.916;2023-05-24T02:40:49;99712.44;;;18.67;52.28
21779;BME280;11050;52.222;20.916;2023-05-24T02:43:15;99713.59;;;18.66;51.79
21779;BME280;11050;52.222;20.916;2023-05-24T02:45:40;99721.94;;;18.66;52.18
21779;BME280;11050;52.222;20.916;2023-05-24T02:48:06;99717.00;;;18.63;51.72
21779;BME280;11050;52.222;20.916;2023-05-24T02:50:32;99713.22;;;18.59;51.64
21779;BME280;11050;52.222;20.916;2023-05-24T02:52:58;99705.03;;;18.54;52.04
21779;BME280;11050;52.222;20.916;2023-05-24T02:55:23;99714.69;;;18.57;52.35
21779;BME280;11050;52.222;20.916;2023-05-24T02:57:49;99716.16;;;18.54;52.68
21779;BME280;11050;52.222;20.916;2023-05-24T03:00:16;99717.31;;;18.53;51.91
21779;BME280;11050;52.222;20.916;2023-05-24T03:02:43;99722.38;;;18.51;52.64
21779;BME280;11050;52.222;20.916;2023-05-24T03:05:12;99712.19;;;18.47;52.38
21779;BME280;11050;52.222;20.916;2023-05-24T03:07:37;99719.09;;;18.49;52.26
21779;BME280;11050;52.222;20.916;2023-05-24T03:10:04;99715.31;;;18.54;51.88
21779;BME280;11050;52.222;20.916;2023-05-24T03:12:29;99732.84;;;18.54;52.47
21779;BME280;11050;52.222;20.916;2023-05-24T03:14:55;99722.22;;;18.56;51.90
21779;BME280;11050;52.222;20.916;2023-05-24T03:17:21;99731.91;;;18.59;51.46
21779;BME280;11050;52.222;20.916;2023-05-24T03:19:46;99726.84;;;18.61;52.51
21779;BME280;11050;52.222;20.916;2023-05-24T03:22:12;99741.72;;;18.65;52.45
21779;BME280;11050;52.222;20.916;2023-05-24T03:24:38;99737.50;;;18.67;52.66
21779;BME280;11050;52.222;20.916;2023-05-24T03:27:05;99733.75;;;18.72;51.93
21779;BME280;11050;52.222;20.916;2023-05-24T03:29:31;99736.41;;;18.77;51.95
21779;BME280;11050;52.222;20.916;2023-05-24T03:31:57;99734.09;;;18.79;52.19
21779;BME280;11050;52.222;20.916;2023-05-24T03:34:22;99732.94;;;18.80;52.34
21779;BME280;11050;52.222;20.916;2023-05-24T03:36:48;99734.44;;;18.86;51.70
21779;BME280;11050;52.222;20.916;2023-05-24T03:39:14;99734.13;;;18.87;52.04
21779;BME280;11050;52.222;20.916;2023-05-24T03:41:39;99732.66;;;18.90;52.10
21779;BME280;11050;52.222;20.916;2023-05-24T03:44:05;99738.41;;;18.93;51.32
21779;BME280;11050;52.222;20.916;2023-05-24T03:46:31;99734.50;;;18.95;52.27
21779;BME280;11050;52.222;20.916;2023-05-24T03:48:56;99744.66;;;18.99;51.79
21779;BME280;11050;52.222;20.916;2023-05-24T03:51:22;99749.91;;;19.01;51.13
21779;BME280;11050;52.222;20.916;2023-05-24T03:53:56;99753.19;;;19.03;51.60
21779;BME280;11050;52.222;20.916;2023-05-24T03:56:22;99743.69;;;19.04;51.44
21779;BME280;11050;52.222;20.916;2023-05-24T03:58:48;99750.25;;;19.08;51.65
21779;BME280;11050;52.222;20.916;2023-05-24T04:01:17;99753.56;;;19.10;51.99
21779;BME280;11050;52.222;20.916;2023-05-24T04:03:44;99742.56;;;19.13;51.46
21779;BME280;11050;52.222;20.916;2023-05-24T04:06:11;99754.56;;;19.22;51.33
21779;BME280;11050;52.222;20.916;2023-05-24T04:08:37;99768.50;;;19.31;50.91
21779;BME280;11050;52.222;20.916;2023-05-24T04:11:02;99762.16;;;19.39;50.80
21779;BME280;11050;52.222;20.916;2023-05-24T04:13:28;99763.31;;;19.46;51.38
21779;BME280;11050;52.222;20.916;2023-05-24T04:15:54;99768.25;;;19.58;50.50
21779;BME280;11050;52.222;20.916;2023-05-24T04:18:19;99766.63;;;19.65;49.94
21779;BME280;11050;52.222;20.916;2023-05-24T04:20:46;99776.47;;;19.71;49.77
21779;BME280;11050;52.222;20.916;2023-05-24T04:23:11;99778.25;;;19.76;49.72
21779;BME280;11050;52.222;20.916;2023-05-24T04:25:37;99783.38;;;19.82;49.78
21779;BME280;11050;52.222;20.916;2023-05-24T04:28:03;99777.94;;;19.86;49.91
21779;BME280;11050;52.222;20.916;2023-05-24T04:30:29;99783.06;;;19.93;50.24
21779;BME280;11050;52.222;20.916;2023-05-24T04:32:56;99783.53;;;19.95;49.61
21779;BME280;11050;52.222;20.916;2023-05-24T04:35:23;99786.16;;;20.08;49.80
21779;BME280;11050;52.222;20.916;2023-05-24T04:37:52;99787.13;;;20.12;50.29
21779;BME280;11050;52.222;20.916;2023-05-24T04:40:18;99791.91;;;20.20;50.02
21779;BME280;11050;52.222;20.916;2023-05-24T04:42:45;99787.16;;;20.29;49.63
21779;BME280;11050;52.222;20.916;2023-05-24T04:45:11;99790.91;;;20.33;49.22
21779;BME280;11050;52.222;20.916;2023-05-24T04:47:37;99788.78;;;20.39;49.54
21779;BME280;11050;52.222;20.916;2023-05-24T04:50:04;99781.88;;;20.45;49.21
21779;BME280;11050;52.222;20.916;2023-05-24T04:52:30;99798.28;;;20.46;49.16
21779;BME280;11050;52.222;20.916;2023-05-24T04:54:57;99787.94;;;20.47;48.95
21779;BME280;11050;52.222;20.916;2023-05-24T04:57:23;99796.97;;;20.44;48.81
21779;BME280;11050;52.222;20.916;2023-05-24T04:59:49;99799.59;;;20.40;48.86
21779;BME280;11050;52.222;20.916;2023-05-24T05:02:14;99801.75;;;20.43;49.27
21779;BME280;11050;52.222;20.916;2023-05-24T05:04:40;99803.22;;;20.49;48.70
21779;BME280;11050;52.222;20.916;2023-05-24T05:07:06;99805.31;;;20.61;49.11
21779;BME280;11050;52.222;20.916;2023-05-24T05:09:32;99798.25;;;20.63;48.40
21779;BME280;11050;52.222;20.916;2023-05-24T05:11:58;99800.22;;;20.63;48.17
21779;BME280;11050;52.222;20.916;2023-05-24T05:14:24;99793.81;;;20.62;48.38
21779;BME280;11050;52.222;20.916;2023-05-24T05:16:50;99811.22;;;20.68;49.29
21779;BME280;11050;52.222;20.916;2023-05-24T05:19:16;99805.31;;;20.61;48.62
21779;BME280;11050;52.222;20.916;2023-05-24T05:21:41;99823.41;;;20.55;49.06
21779;BME280;11050;52.222;20.916;2023-05-24T05:24:07;99827.84;;;20.47;49.69
21779;BME280;11050;52.222;20.916;2023-05-24T05:26:33;99830.16;;;20.37;49.54
21779;BME280;11050;52.222;20.916;2023-05-24T05:29:00;99831.97;;;20.24;50.37
21779;BME280;11050;52.222;20.916;2023-05-24T05:31:25;99835.38;;;20.13;50.96
21779;BME280;11050;52.222;20.916;2023-05-24T05:33:51;99823.25;;;20.00;51.58
21779;BME280;11050;52.222;20.916;2023-05-24T05:36:18;99819.94;;;19.90;52.14
21779;BME280;11050;52.222;20.916;2023-05-24T05:38:43;99827.50;;;19.80;51.49
21779;BME280;11050;52.222;20.916;2023-05-24T05:41:09;99824.53;;;19.77;52.09
21779;BME280;11050;52.222;20.916;2023-05-24T05:43:35;99825.84;;;19.71;52.47
21779;BME280;11050;52.222;20.916;2023-05-24T05:46:00;99825.22;;;19.74;52.24
21779;BME280;11050;52.222;20.916;2023-05-24T05:48:26;99833.72;;;19.86;52.40
21779;BME280;11050;52.222;20.916;2023-05-24T05:50:52;99834.88;;;19.94;52.46
21779;BME280;11050;52.222;20.916;2023-05-24T05:53:17;99837.34;;;19.95;52.83
21779;BME280;11050;52.222;20.916;2023-05-24T05:55:43;99829.97;;;19.99;52.27
21779;BME280;11050;52.222;20.916;2023-05-24T05:58:09;99840.00;;;20.17;51.88
21779;BME280;11050;52.222;20.916;2023-05-24T06:00:36;99840.34;;;20.41;50.68
21779;BME280;11050;52.222;20.916;2023-05-24T06:03:02;99846.38;;;20.69;50.34
21779;BME280;11050;52.222;20.916;2023-05-24T06:05:28;99856.66;;;20.94;48.96
21779;BME280;11050;52.222;20.916;2023-05-24T06:07:53;99856.59;;;21.20;48.55
21779;BME280;11050;52.222;20.916;2023-05-24T06:10:19;99854.97;;;21.48;47.55
21779;BME280;11050;52.222;20.916;2023-05-24T06:12:44;99857.81;;;21.68;46.66
21779;BME280;11050;52.222;20.916;2023-05-24T06:15:10;99859.41;;;21.87;47.37
21779;BME280;11050;52.222;20.916;2023-05-24T06:17:36;99859.53;;;21.90;47.12
21779;BME280;11050;52.222;20.916;2023-05-24T06:20:03;99860.69;;;21.89;44.88
21779;BME280;11050;52.222;20.916;2023-05-24T06:22:34;99865.63;;;21.92;45.40
21779;BME280;11050;52.222;20.916;2023-05-24T06:25:03;99867.69;;;22.04;44.03
21779;BME280;11050;52.222;20.916;2023-05-24T06:27:29;99876.59;;;22.18;43.88
21779;BME280;11050;52.222;20.916;2023-05-24T06:29:55;99877.34;;;22.27;43.89
21779;BME280;11050;52.222;20.916;2023-05-24T06:32:21;99882.16;;;22.47;44.76
21779;BME280;11050;52.222;20.916;2023-05-24T06:34:46;99885.63;;;22.65;45.28
21779;BME280;11050;52.222;20.916;2023-05-24T06:37:12;99894.09;;;23.09;42.42
21779;BME280;11050;52.222;20.916;2023-05-24T06:39:40;99896.75;;;23.50;40.91
21779;BME280;11050;52.222;20.916;2023-05-24T06:42:06;99892.88;;;23.67;39.63
21779;BME280;11050;52.222;20.916;2023-05-24T06:44:31;99905.53;;;23.73;40.13
21779;BME280;11050;52.222;20.916;2023-05-24T06:47:02;99910.06;;;23.90;40.12
21779;BME280;11050;52.222;20.916;2023-05-24T06:49:28;99901.91;;;24.09;41.00
21779;BME280;11050;52.222;20.916;2023-05-24T06:51:54;99904.94;;;24.16;40.67
21779;BME280;11050;52.222;20.916;2023-05-24T06:54:20;99904.91;;;24.28;38.71
21779;BME280;11050;52.222;20.916;2023-05-24T06:56:46;99905.13;;;24.35;38.65
21779;BME280;11050;52.222;20.916;2023-05-24T06:59:12;99913.75;;;24.42;36.82
21779;BME280;11050;52.222;20.916;2023-05-24T07:01:38;99910.91;;;24.54;37.00
21779;BME280;11050;52.222;20.916;2023-05-24T07:04:07;99906.31;;;24.74;37.32
21779;BME280;11050;52.222;20.916;2023-05-24T07:06:34;99915.00;;;24.96;36.08
21779;BME280;11050;52.222;20.916;2023-05-24T07:09:02;99917.13;;;25.15;36.24
21779;BME280;11050;52.222;20.916;2023-05-24T07:11:29;99915.81;;;25.40;35.93
21779;BME280;11050;52.222;20.916;2023-05-24T07:13:58;99922.47;;;25.63;34.90
21779;BME280;11050;52.222;20.916;2023-05-24T07:16:24;99928.63;;;25.53;34.69
21779;BME280;11050;52.222;20.916;2023-05-24T07:18:50;99919.91;;;25.43;35.10
21779;BME280;11050;52.222;20.916;2023-05-24T07:21:16;99929.94;;;25.28;35.12
21779;BME280;11050;52.222;20.916;2023-05-24T07:23:42;99937.19;;;25.29;36.06
21779;BME280;11050;52.222;20.916;2023-05-24T07:26:08;99943.16;;;25.12;35.62
21779;BME280;11050;52.222;20.916;2023-05-24T07:28:34;99937.59;;;25.00;36.00
21779;BME280;11050;52.222;20.916;2023-05-24T07:31:03;99943.97;;;25.12;36.63
21779;BME280;11050;52.222;20.916;2023-05-24T07:33:29;99949.38;;;25.33;36.42
21779;BME280;11050;52.222;20.916;2023-05-24T07:35:55;99956.88;;;25.57;36.40
21779;BME280;11050;52.222;20.916;2023-05-24T07:38:20;99950.81;;;25.55;35.07
21779;BME280;11050;52.222;20.916;2023-05-24T07:40:46;99958.25;;;25.47;36.74
21779;BME280;11050;52.222;20.916;2023-05-24T07:43:12;99961.50;;;25.49;36.87
21779;BME280;11050;52.222;20.916;2023-05-24T07:45:38;99958.69;;;25.49;36.05
21779;BME280;11050;52.222;20.916;2023-05-24T07:48:04;99962.41;;;25.69;36.93
21779;BME280;11050;52.222;20.916;2023-05-24T07:50:30;99966.41;;;25.83;37.75
21779;BME280;11050;52.222;20.916;2023-05-24T07:52:56;99961.25;;;25.70;37.79
21779;BME280;11050;52.222;20.916;2023-05-24T07:55:22;99973.31;;;25.70;38.26
21779;BME280;11050;52.222;20.916;2023-05-24T07:57:47;99961.44;;;25.92;37.34
21779;BME280;11050;52.222;20.916;2023-05-24T08:00:14;99971.22;;;26.30;35.75
21779;BME280;11050;52.222;20.916;2023-05-24T08:02:41;99978.16;;;26.51;33.99
21779;BME280;11050;52.222;20.916;2023-05-24T08:05:11;99978.47;;;26.81;32.96
21779;BME280;11050;52.222;20.916;2023-05-24T08:07:37;99975.78;;;27.07;32.91
21779;BME280;11050;52.222;20.916;2023-05-24T08:10:05;99980.78;;;26.94;33.38
21779;BME280;11050;52.222;20.916;2023-05-24T08:12:31;99986.31;;;26.91;33.16
21779;BME280;11050;52.222;20.916;2023-05-24T08:14:57;99982.63;;;26.87;34.31
21779;BME280;11050;52.222;20.916;2023-05-24T08:17:23;99988.78;;;26.92;34.30
21779;BME280;11050;52.222;20.916;2023-05-24T08:19:49;99990.09;;;26.98;34.26
21779;BME280;11050;52.222;20.916;2023-05-24T08:22:15;99992.28;;;27.24;33.42
21779;BME280;11050;52.222;20.916;2023-05-24T08:24:41;99989.59;;;27.50;32.81
21779;BME280;11050;52.222;20.916;2023-05-24T08:27:06;99995.69;;;27.52;32.68
21779;BME280;11050;52.222;20.916;2023-05-24T08:29:34;99996.13;;;27.54;33.47
21779;BME280;11050;52.222;20.916;2023-05-24T08:32:00;99998.84;;;27.70;33.63
21779;BME280;11050;52.222;20.916;2023-05-24T08:34:25;99997.03;;;27.81;32.90
21779;BME280;11050;52.222;20.916;2023-05-24T08:36:52;100004.72;;;27.61;32.29
21779;BME280;11050;52.222;20.916;2023-05-24T08:39:19;100002.78;;;27.65;31.70
21779;BME280;11050;52.222;20.916;2023-05-24T08:41:45;100007.06;;;27.78;31.78
21779;BME280;11050;52.222;20.916;2023-05-24T08:44:12;99996.22;;;28.03;31.46
21779;BME280;11050;52.222;20.916;2023-05-24T08:46:38;99997.94;;;28.08;30.74
21779;BME280;11050;52.222;20.916;2023-05-24T08:49:04;100010.31;;;28.26;30.94
21779;BME280;11050;52.222;20.916;2023-05-24T08:51:32;100006.25;;;28.23;30.83
21779;BME280;11050;52.222;20.916;2023-05-24T08:53:59;100008.06;;;28.12;31.11
21779;BME280;11050;52.222;20.916;2023-05-24T08:56:26;100009.22;;;28.08;32.89
21779;BME280;11050;52.222;20.916;2023-05-24T08:58:54;100014.88;;;28.08;31.96
21779;BME280;11050;52.222;20.916;2023-05-24T09:01:22;100008.22;;;27.96;32.64
21779;BME280;11050;52.222;20.916;2023-05-24T09:03:50;100011.22;;;27.84;33.43
21779;BME280;11050;52.222;20.916;2023-05-24T09:06:17;100014.75;;;27.81;34.46
21779;BME280;11050;52.222;20.916;2023-05-24T09:08:44;100016.56;;;27.70;34.09
21779;BME280;11050;52.222;20.916;2023-05-24T09:11:13;100019.16;;;27.56;35.47
21779;BME280;11050;52.222;20.916;2023-05-24T09:13:40;100021.75;;;27.46;34.25
21779;BME280;11050;52.222;20.916;2023-05-24T09:16:07;100022.31;;;27.32;33.47
21779;BME280;11050;52.222;20.916;2023-05-24T09:18:32;100022.78;;;27.18;34.18
21779;BME280;11050;52.222;20.916;2023-05-24T09:20:58;100026.00;;;27.17;33.29
21779;BME280;11050;52.222;20.916;2023-05-24T09:23:25;100024.34;;;27.16;33.94
21779;BME280;11050;52.222;20.916;2023-05-24T09:25:51;100026.00;;;27.17;34.23
21779;BME280;11050;52.222;20.916;2023-05-24T09:28:19;100034.88;;;27.19;33.68
21779;BME280;11050;52.222;20.916;2023-05-24T09:30:58;100035.78;;;27.23;33.99
21779;BME280;11050;52.222;20.916;2023-05-24T09:33:29;100033.41;;;27.25;34.34
21779;BME280;11050;52.222;20.916;2023-05-24T09:36:00;100037.56;;;27.31;33.90
21779;BME280;11050;52.222;20.916;2023-05-24T09:38:27;100036.19;;;27.41;33.86
21779;BME280;11050;52.222;20.916;2023-05-24T09:41:06;100041.97;;;27.48;34.07
21779;BME280;11050;52.222;20.916;2023-05-24T09:43:34;100045.28;;;27.53;33.95
21779;BME280;11050;52.222;20.916;2023-05-24T09:46:16;100047.66;;;27.70;33.67
21779;BME280;11050;52.222;20.916;2023-05-24T09:48:57;100049.34;;;27.75;32.91
21779;BME280;11050;52.222;20.916;2023-05-24T09:51:24;100053.81;;;27.76;34.04
21779;BME280;11050;52.222;20.916;2023-05-24T09:53:50;100058.44;;;27.65;34.59
21779;BME280;11050;52.222;20.916;2023-05-24T09:56:17;100058.16;;;27.51;35.02
21779;BME280;11050;52.222;20.916;2023-05-24T09:58:44;100057.50;;;27.38;34.76
21779;BME280;11050;52.222;20.916;2023-05-24T10:01:10;100059.78;;;27.33;34.74
21779;BME280;11050;52.222;20.916;2023-05-24T10:03:38;100039.03;;;27.25;34.87
21779;BME280;11050;52.222;20.916;2023-05-24T10:06:11;100057.22;;;27.43;35.07
21779;BME280;11050;52.222;20.916;2023-05-24T10:08:38;100058.63;;;27.53;33.87
21779;BME280;11050;52.222;20.916;2023-05-24T10:11:04;100059.84;;;27.55;34.58
21779;BME280;11050;52.222;20.916;2023-05-24T10:13:35;100065.66;;;27.62;34.75
21779;BME280;11050;52.222;20.916;2023-05-24T10:16:04;100064.16;;;27.68;34.66
21779;BME280;11050;52.222;20.916;2023-05-24T10:18:30;100070.81;;;27.79;33.66
21779;BME280;11050;52.222;20.916;2023-05-24T10:20:56;100069.56;;;27.77;33.65
21779;BME280;11050;52.222;20.916;2023-05-24T10:23:25;100077.09;;;27.69;33.52
21779;BME280;11050;52.222;20.916;2023-05-24T10:26:08;100070.13;;;27.63;33.71
21779;BME280;11050;52.222;20.916;2023-05-24T10:28:46;100074.78;;;27.75;33.74
21779;BME280;11050;52.222;20.916;2023-05-24T10:31:35;100060.06;;;27.85;32.73
21779;BME280;11050;52.222;20.916;2023-05-24T10:34:04;100070.13;;;28.05;34.25
21779;BME280;11050;52.222;20.916;2023-05-24T10:36:30;100062.31;;;28.21;33.25
21779;BME280;11050;52.222;20.916;2023-05-24T10:38:57;100072.91;;;28.24;33.15
21779;BME280;11050;52.222;20.916;2023-05-24T10:41:25;100066.91;;;28.29;32.58
21779;BME280;11050;52.222;20.916;2023-05-24T10:43:56;100070.88;;;28.25;32.78
21779;BME280;11050;52.222;20.916;2023-05-24T10:46:22;100074.34;;;28.37;32.74
21779;BME280;11050;52.222;20.916;2023-05-24T10:48:59;100067.84;;;28.37;32.91
21779;BME280;11050;52.222;20.916;2023-05-24T10:51:37;100074.06;;;28.46;32.00
21779;BME280;11050;52.222;20.916;2023-05-24T10:54:11;100074.78;;;28.62;32.29
21779;BME280;11050;52.222;20.916;2023-05-24T10:56:47;100082.09;;;28.66;32.87
21779;BME280;11050;52.222;20.916;2023-05-24T10:59:34;100089.34;;;28.64;32.18
21779;BME280;11050;52.222;20.916;2023-05-24T11:02:09;100085.50;;;28.53;31.80
21779;BME280;11050;52.222;20.916;2023-05-24T11:04:45;100080.53;;;28.46;31.89
21779;BME280;11050;52.222;20.916;2023-05-24T11:07:13;100082.00;;;28.59;32.22
21779;BME280;11050;52.222;20.916;2023-05-24T11:09:42;100078.84;;;28.64;31.84
21779;BME280;11050;52.222;20.916;2023-05-24T11:12:15;100089.47;;;28.71;31.83
21779;BME280;11050;52.222;20.916;2023-05-24T11:14:52;100090.00;;;28.80;31.88
21779;BME280;11050;52.222;20.916;2023-05-24T11:17:22;100084.91;;;28.92;32.01
21779;BME280;11050;52.222;20.916;2023-05-24T11:19:53;100093.78;;;29.17;30.71
21779;BME280;11050;52.222;20.916;2023-05-24T11:22:22;100086.38;;;29.35;31.27
21779;BME280;11050;52.222;20.916;2023-05-24T11:24:50;100093.44;;;29.81;31.12
21779;BME280;11050;52.222;20.916;2023-05-24T11:27:16;100090.53;;;30.55;29.63
21779;BME280;11050;52.222;20.916;2023-05-24T11:29:44;100091.19;;;31.50;27.60
21779;BME280;11050;52.222;20.916;2023-05-24T11:32:16;100097.09;;;32.31;27.08
21779;BME280;11050;52.222;20.916;2023-05-24T11:34:43;100083.66;;;33.16;26.88
21779;BME280;11050;52.222;20.916;2023-05-24T11:37:11;100092.88;;;34.34;24.44
21779;BME280;11050;52.222;20.916;2023-05-24T11:39:37;100091.34;;;35.15;22.90
21779;BME280;11050;52.222;20.916;2023-05-24T11:42:07;100086.50;;;35.79;22.44
21779;BME280;11050;52.222;20.916;2023-05-24T11:44:35;100105.22;;;36.44;21.60
21779;BME280;11050;52.222;20.916;2023-05-24T11:47:06;100108.22;;;36.83;21.70
21779;BME280;11050;52.222;20.916;2023-05-24T11:49:33;100106.69;;;37.02;20.99
21779;BME280;11050;52.222;20.916;2023-05-24T11:52:00;100096.84;;;37.46;20.26
21779;BME280;11050;52.222;20.916;2023-05-24T11:54:26;100100.16;;;37.83;20.35
21779;BME280;11050;52.222;20.916;2023-05-24T11:56:53;100092.94;;;37.75;19.54
21779;BME280;11050;52.222;20.916;2023-05-24T11:59:28;100094.31;;;36.85;20.47
21779;BME280;11050;52.222;20.916;2023-05-24T12:02:04;100088.28;;;36.53;21.07
21779;BME280;11050;52.222;20.916;2023-05-24T12:04:31;100094.91;;;36.50;21.88
21779;BME280;11050;52.222;20.916;2023-05-24T12:06:58;100088.53;;;36.62;21.52
21779;BME280;11050;52.222;20.916;2023-05-24T12:09:25;100088.31;;;36.76;21.06
21779;BME280;11050;52.222;20.916;2023-05-24T12:11:52;100100.84;;;37.29;21.25
21779;BME280;11050;52.222;20.916;2023-05-24T12:14:30;100088.66;;;38.03;19.42
21779;BME280;11050;52.222;20.916;2023-05-24T12:16:58;100087.94;;;38.83;19.31
21779;BME280;11050;52.222;20.916;2023-05-24T12:19:30;100094.63;;;39.25;18.47
21779;BME280;11050;52.222;20.916;2023-05-24T12:22:00;100099.22;;;39.51;18.09
21779;BME280;11050;52.222;20.916;2023-05-24T12:24:30;100097.13;;;39.80;18.00
21779;BME280;11050;52.222;20.916;2023-05-24T12:27:02;100096.97;;;40.25;18.08
21779;BME280;11050;52.222;20.916;2023-05-24T12:29:39;100100.41;;;40.70;17.77
21779;BME280;11050;52.222;20.916;2023-05-24T12:32:06;100100.41;;;40.83;17.22
21779;BME280;11050;52.222;20.916;2023-05-24T12:34:39;100099.44;;;40.98;17.24
21779;BME280;11050;52.222;20.916;2023-05-24T12:37:07;100103.19;;;41.33;17.12
21779;BME280;11050;52.222;20.916;2023-05-24T12:39:35;100103.69;;;41.75;16.47
21779;BME280;11050;52.222;20.916;2023-05-24T12:42:03;100094.97;;;41.96;15.91
21779;BME280;11050;52.222;20.916;2023-05-24T12:44:34;100110.19;;;41.88;15.94
21779;BME280;11050;52.222;20.916;2023-05-24T12:47:03;100102.72;;;41.56;16.02
21779;BME280;11050;52.222;20.916;2023-05-24T12:49:30;100092.38;;;41.12;16.42
21779;BME280;11050;52.222;20.916;2023-05-24T12:51:56;100093.53;;;41.14;16.50
21779;BME280;11050;52.222;20.916;2023-05-24T12:54:25;100102.06;;;41.05;16.49
21779;BME280;11050;52.222;20.916;2023-05-24T12:56:52;100087.84;;;40.89;17.24
21779;BME280;11050;52.222;20.916;2023-05-24T12:59:18;100093.84;;;40.70;16.76
21779;BME280;11050;52.222;20.916;2023-05-24T13:01:43;100089.38;;;40.18;17.35